Time;durP1;ratioP1;P1;durP2;ratioP2;P2;SDS_P1;SDS_P2;PMS_P1;PMS_P2;Temp;Humidity;BMP_temperature;BMP_pressure;BME280_temperature;BME280_humidity;BME280_pressure;Samples;Min_cycle;Max_cycle;Signal;HPM_P1;HPM_P2
2021/05/10 00:01:52;;;;;;;1.52;1.42;;;23.50;55.70;;;;;;4736625;30;20044;-91
2021/05/10 00:04:20;;;;;;;1.77;1.48;;;23.50;55.70;;;;;;4737226;30;20032;-91
2021/05/10 00:06:46;;;;;;;2.78;1.77;;;23.50;55.80;;;;;;4737021;30;20113;-90
2021/05/10 00:09:12;;;;;;;2.20;1.67;;;23.50;55.80;;;;;;4721195;30;20044;-92
2021/05/10 00:11:38;;;;;;;1.90;1.60;;;23.50;55.80;;;;;;4737110;30;20044;-90
2021/05/10 00:14:05;;;;;;;2.13;1.77;;;23.40;55.80;;;;;;4737881;30;20066;-91
2021/05/10 00:16:32;;;;;;;2.35;1.70;;;23.40;55.80;;;;;;4751824;30;20044;-89
2021/05/10 00:18:58;;;;;;;1.70;1.52;;;23.40;55.90;;;;;;4736241;30;20132;-90
2021/05/10 00:21:25;;;;;;;1.90;1.70;;;23.40;55.90;;;;;;4751422;30;20044;-91
2021/05/10 00:23:51;;;;;;;2.45;1.90;;;23.40;56.00;;;;;;4721974;30;20030;-91
2021/05/10 00:26:17;;;;;;;2.47;1.80;;;23.30;55.90;;;;;;4751735;30;20131;-89
2021/05/10 00:28:43;;;;;;;3.20;1.90;;;23.30;55.90;;;;;;4734210;30;20135;-90
2021/05/10 00:31:08;;;;;;;1.88;1.67;;;23.30;56.00;;;;;;4747373;30;20472;-91
2021/05/10 00:33:34;;;;;;;2.78;1.80;;;23.20;55.90;;;;;;4739536;30;20119;-91
2021/05/10 00:36:00;;;;;;;2.22;1.60;;;23.20;56.00;;;;;;4736446;30;20028;-91
2021/05/10 00:38:26;;;;;;;1.80;1.65;;;23.20;56.00;;;;;;4726663;30;20040;-91
2021/05/10 00:40:52;;;;;;;2.40;2.00;;;23.20;56.00;;;;;;4740262;30;20037;-92
2021/05/10 00:43:17;;;;;;;2.10;1.83;;;23.10;56.00;;;;;;4755344;30;20036;-91
2021/05/10 00:45:43;;;;;;;2.00;1.75;;;23.10;56.10;;;;;;4739838;30;20048;-89
2021/05/10 00:48:09;;;;;;;1.90;1.50;;;23.10;56.10;;;;;;4740219;30;20105;-90
2021/05/10 00:50:36;;;;;;;2.40;1.80;;;23.10;56.10;;;;;;4738454;30;20395;-90
2021/05/10 00:53:02;;;;;;;2.50;1.90;;;23.10;56.10;;;;;;4740180;30;20074;-91
2021/05/10 00:55:28;;;;;;;1.85;1.60;;;23.10;56.20;;;;;;4759191;30;20117;-91
2021/05/10 00:58:04;;;;;;;2.13;1.70;;;23.00;56.20;;;;;;4748850;30;20513;-91
2021/05/10 01:00:34;;;;;;;2.23;1.80;;;23.00;56.20;;;;;;4749509;30;20074;-90
2021/05/10 01:03:00;;;;;;;2.35;1.85;;;23.00;56.20;;;;;;4754247;30;20482;-90
2021/05/10 01:05:26;;;;;;;2.67;2.00;;;22.90;56.20;;;;;;4739839;30;20067;-90
2021/05/10 01:07:53;;;;;;;2.75;1.63;;;22.90;56.20;;;;;;4739881;30;20032;-91
2021/05/10 01:10:24;;;;;;;2.58;1.98;;;22.90;56.30;;;;;;4740044;30;20550;-90
2021/05/10 01:12:50;;;;;;;2.20;1.80;;;22.90;56.30;;;;;;4735837;30;20063;-91
2021/05/10 01:15:19;;;;;;;2.85;2.20;;;22.90;56.30;;;;;;4739378;30;20444;-92
2021/05/10 01:17:45;;;;;;;2.00;1.80;;;22.90;56.30;;;;;;4752495;30;20496;-91
2021/05/10 01:20:13;;;;;;;3.08;2.13;;;22.80;56.30;;;;;;4753978;30;20036;-91
2021/05/10 01:22:44;;;;;;;2.85;2.30;;;22.80;56.40;;;;;;4762783;30;20112;-92
2021/05/10 01:25:17;;;;;;;2.33;1.83;;;22.80;56.40;;;;;;4754321;30;20123;-92
2021/05/10 01:27:44;;;;;;;2.72;2.10;;;22.80;56.40;;;;;;4744574;30;20063;-92
2021/05/10 01:30:26;;;;;;;2.40;1.90;;;22.70;56.40;;;;;;4754975;30;20044;-92
2021/05/10 01:32:56;;;;;;;2.60;2.10;;;22.70;56.50;;;;;;4753937;30;20040;-91
2021/05/10 01:35:25;;;;;;;2.20;1.90;;;22.70;56.40;;;;;;4737577;30;20107;-90
2021/05/10 01:37:54;;;;;;;2.53;1.90;;;22.70;56.50;;;;;;4752603;30;20032;-90
2021/05/10 01:40:22;;;;;;;2.97;2.05;;;22.70;56.50;;;;;;4753851;30;20035;-91
2021/05/10 01:42:48;;;;;;;2.17;1.80;;;22.60;56.50;;;;;;4739547;30;20040;-90
2021/05/10 01:45:14;;;;;;;2.22;1.90;;;22.60;56.50;;;;;;4753645;30;20043;-91
2021/05/10 01:47:41;;;;;;;2.20;1.92;;;22.60;56.50;;;;;;4755015;30;20028;-90
2021/05/10 01:50:20;;;;;;;2.20;2.00;;;22.60;56.60;;;;;;4722993;30;20043;-91
2021/05/10 01:52:47;;;;;;;2.85;2.13;;;22.50;56.60;;;;;;4747908;30;20032;-91
2021/05/10 01:55:14;;;;;;;2.85;2.10;;;22.50;56.60;;;;;;4756769;30;20047;-89
2021/05/10 01:57:41;;;;;;;2.47;1.80;;;22.50;57.20;;;;;;4749646;30;20059;-92
2021/05/10 02:00:15;;;;;;;2.13;1.80;;;22.50;56.60;;;;;;4759240;30;20257;-92
2021/05/10 02:02:43;;;;;;;3.03;2.00;;;22.40;56.60;;;;;;4753369;30;20025;-91
2021/05/10 02:05:09;;;;;;;2.58;2.10;;;22.40;56.60;;;;;;4758174;30;20123;-91
2021/05/10 02:07:37;;;;;;;3.33;2.35;;;22.40;56.70;;;;;;4751127;30;20036;-91
2021/05/10 02:10:09;;;;;;;2.65;1.88;;;22.40;56.70;;;;;;4736933;30;20123;-89
2021/05/10 02:12:35;;;;;;;2.53;2.00;;;22.40;56.70;;;;;;4753174;30;20474;-91
2021/05/10 02:15:01;;;;;;;3.00;2.20;;;22.30;56.70;;;;;;4741228;30;20151;-91
2021/05/10 02:17:26;;;;;;;3.13;1.98;;;22.30;56.70;;;;;;4723889;30;20063;-90
2021/05/10 02:19:52;;;;;;;2.95;1.98;;;22.30;56.70;;;;;;4737627;30;20105;-88
2021/05/10 02:22:18;;;;;;;2.85;1.95;;;22.30;56.80;;;;;;4752843;30;20482;-91
2021/05/10 02:24:44;;;;;;;3.90;2.17;;;22.30;56.80;;;;;;4739598;30;20059;-91
2021/05/10 02:27:10;;;;;;;2.90;2.08;;;22.20;56.80;;;;;;4737632;30;20036;-89
2021/05/10 02:29:36;;;;;;;2.90;2.10;;;22.20;56.80;;;;;;4742469;30;20614;-91
2021/05/10 02:32:02;;;;;;;2.58;1.90;;;22.20;56.80;;;;;;4724501;30;20448;-91
2021/05/10 02:34:27;;;;;;;2.28;1.98;;;22.20;56.80;;;;;;4738855;30;20092;-91
2021/05/10 02:36:53;;;;;;;2.45;1.88;;;22.20;56.80;;;;;;4738386;30;20036;-92
2021/05/10 02:39:19;;;;;;;2.65;1.90;;;22.10;56.80;;;;;;4752673;30;20051;-92
2021/05/10 02:41:45;;;;;;;2.03;1.83;;;22.10;56.80;;;;;;4723543;30;20147;-90
2021/05/10 02:44:10;;;;;;;3.70;2.08;;;22.10;56.90;;;;;;4740914;30;20048;-92
2021/05/10 02:46:36;;;;;;;2.38;2.00;;;22.10;56.90;;;;;;4738015;30;20493;-92
2021/05/10 02:49:02;;;;;;;2.47;1.90;;;22.00;56.90;;;;;;4752876;30;20409;-91
2021/05/10 02:51:28;;;;;;;3.03;2.20;;;22.00;56.90;;;;;;4738323;30;20041;-92
2021/05/10 02:53:54;;;;;;;3.67;2.30;;;22.00;56.90;;;;;;4738415;30;20431;-93
2021/05/10 02:56:19;;;;;;;3.08;2.03;;;22.00;56.90;;;;;;4727371;30;20028;-92
2021/05/10 02:58:45;;;;;;;2.55;2.10;;;22.00;57.00;;;;;;4737797;30;20100;-93
2021/05/10 03:01:11;;;;;;;2.60;2.05;;;21.90;56.90;;;;;;4737256;30;20044;-93
2021/05/10 03:03:37;;;;;;;3.08;2.22;;;21.90;57.00;;;;;;4723534;30;20043;-91
2021/05/10 03:06:03;;;;;;;3.03;2.03;;;21.90;57.00;;;;;;4723392;30;20032;-92
2021/05/10 03:08:28;;;;;;;2.40;2.00;;;21.90;57.00;;;;;;4728140;30;20067;-93
2021/05/10 03:10:54;;;;;;;2.47;1.75;;;21.90;57.00;;;;;;4722952;30;20147;-93
2021/05/10 03:13:20;;;;;;;2.15;1.73;;;21.80;57.00;;;;;;4722911;30;20577;-92
2021/05/10 03:15:46;;;;;;;2.53;1.92;;;21.80;57.10;;;;;;4752523;30;20044;-92
2021/05/10 03:18:12;;;;;;;3.00;2.20;;;21.80;57.10;;;;;;4751697;30;20465;-93
2021/05/10 03:20:37;;;;;;;2.55;1.98;;;21.70;57.00;;;;;;4737651;30;20116;-94
2021/05/10 03:23:03;;;;;;;2.40;1.73;;;21.70;57.10;;;;;;4752095;30;20098;-93
2021/05/10 03:25:29;;;;;;;2.30;1.75;;;21.70;57.10;;;;;;4737445;30;20040;-91
2021/05/10 03:27:55;;;;;;;2.08;1.67;;;21.70;57.20;;;;;;4708878;30;20479;-92
2021/05/10 03:30:25;;;;;;;1.90;1.70;;;21.70;57.10;;;;;;4751745;30;20130;-89
2021/05/10 03:32:51;;;;;;;2.53;1.80;;;21.70;57.20;;;;;;4737466;30;20402;-90
2021/05/10 03:35:18;;;;;;;1.88;1.67;;;21.60;57.20;;;;;;4751669;30;20039;-91
2021/05/10 03:37:44;;;;;;;2.70;1.90;;;21.60;57.30;;;;;;4737075;30;20075;-91
2021/05/10 03:40:13;;;;;;;2.97;1.95;;;21.60;57.20;;;;;;4737397;30;20044;-92
2021/05/10 03:42:39;;;;;;;2.42;1.80;;;21.60;57.20;;;;;;4752117;30;20170;-93
2021/05/10 03:45:07;;;;;;;1.73;1.60;;;21.60;57.20;;;;;;4745674;30;20035;-92
2021/05/10 03:47:38;;;;;;;1.75;1.60;;;21.50;57.20;;;;;;4737867;30;20514;-92
2021/05/10 03:50:09;;;;;;;3.30;1.98;;;21.50;57.20;;;;;;4751831;30;20036;-92
2021/05/10 03:52:35;;;;;;;2.00;1.58;;;21.50;57.30;;;;;;4741396;30;20040;-93
2021/05/10 03:55:02;;;;;;;1.70;1.58;;;21.50;57.30;;;;;;4722610;30;20453;-91
2021/05/10 03:57:28;;;;;;;1.90;1.52;;;21.50;57.30;;;;;;4737029;30;20059;-90
2021/05/10 03:59:56;;;;;;;2.22;1.50;;;21.50;57.30;;;;;;4751930;30;20072;-91
2021/05/10 04:02:22;;;;;;;1.42;1.33;;;21.40;57.30;;;;;;4746543;30;20040;-92
2021/05/10 04:05:05;;;;;;;1.65;1.52;;;21.40;57.30;;;;;;4737427;30;20040;-93
2021/05/10 04:07:45;;;;;;;1.55;1.45;;;21.40;57.30;;;;;;4738786;30;20036;-92
2021/05/10 04:15:40;;;;;;;1.90;1.33;;;21.30;57.20;;;;;;4742925;30;20182;-92
2021/05/10 04:18:06;;;;;;;1.30;1.20;;;21.20;57.20;;;;;;4750579;30;20131;-91
2021/05/10 04:20:31;;;;;;;1.40;1.30;;;21.30;57.30;;;;;;4740138;30;20493;-92
2021/05/10 04:22:57;;;;;;;1.40;1.30;;;21.20;57.30;;;;;;4756202;30;20032;-93
2021/05/10 04:25:23;;;;;;;2.10;1.30;;;21.20;57.30;;;;;;4754969;30;20119;-92
2021/05/10 04:27:49;;;;;;;1.08;1.02;;;21.20;57.30;;;;;;4754915;30;20051;-94
2021/05/10 04:30:15;;;;;;;1.85;1.40;;;21.20;57.30;;;;;;4754859;30;20043;-92
2021/05/10 04:32:41;;;;;;;1.48;1.38;;;21.20;57.30;;;;;;4755181;30;20035;-92
2021/05/10 04:35:08;;;;;;;1.42;1.30;;;21.10;57.20;;;;;;4754274;30;20028;-91
2021/05/10 04:37:34;;;;;;;1.90;1.15;;;21.10;57.30;;;;;;4731576;30;20051;-91
2021/05/10 04:40:00;;;;;;;1.30;1.20;;;21.10;57.30;;;;;;4744431;30;20055;-94
2021/05/10 04:42:26;;;;;;;1.35;1.15;;;21.10;57.30;;;;;;4754764;30;20034;-92
2021/05/10 04:44:51;;;;;;;3.08;1.30;;;21.10;57.30;;;;;;4755157;30;20074;-92
2021/05/10 04:47:17;;;;;;;1.48;1.17;;;21.10;57.30;;;;;;4757656;30;20458;-91
2021/05/10 04:49:43;;;;;;;1.63;1.20;;;21.10;57.30;;;;;;4745162;30;20521;-92
2021/05/10 04:52:09;;;;;;;1.25;1.10;;;21.00;57.30;;;;;;4740014;30;20501;-91
2021/05/10 04:54:35;;;;;;;1.20;1.05;;;21.00;57.30;;;;;;4753691;30;20032;-92
2021/05/10 04:57:01;;;;;;;1.10;1.00;;;21.00;57.30;;;;;;4740200;30;20032;-90
2021/05/10 04:59:27;;;;;;;1.85;1.23;;;21.00;57.30;;;;;;4754038;30;20036;-90
2021/05/10 05:01:52;;;;;;;1.73;1.05;;;21.00;57.30;;;;;;4754139;30;20041;-90
2021/05/10 05:04:18;;;;;;;1.38;1.02;;;21.00;57.30;;;;;;4739720;30;20467;-93
2021/05/10 05:06:44;;;;;;;1.73;1.00;;;21.00;57.30;;;;;;4739927;30;20082;-94
2021/05/10 05:09:10;;;;;;;2.00;0.88;;;21.00;57.40;;;;;;4739830;30;20093;-91
2021/05/10 05:11:36;;;;;;;2.10;1.20;;;20.90;57.30;;;;;;4739336;30;20040;-88
2021/05/10 05:14:02;;;;;;;1.52;1.10;;;21.00;57.40;;;;;;4724299;30;20495;-93
2021/05/10 05:16:28;;;;;;;1.60;1.20;;;20.90;57.40;;;;;;4726788;30;20047;-90
2021/05/10 05:18:54;;;;;;;1.02;0.93;;;21.00;57.40;;;;;;4755699;30;20119;-87
2021/05/10 05:21:19;;;;;;;1.02;0.93;;;20.90;57.40;;;;;;4724762;30;20089;-89
2021/05/10 05:23:45;;;;;;;1.10;1.00;;;20.90;57.40;;;;;;4750250;30;20076;-92
2021/05/10 05:26:11;;;;;;;1.83;1.02;;;20.90;57.40;;;;;;4725275;30;20020;-89
2021/05/10 05:28:37;;;;;;;2.45;1.20;;;20.90;57.40;;;;;;4754363;30;20039;-90
2021/05/10 05:31:04;;;;;;;0.80;0.80;;;20.90;57.40;;;;;;4747042;30;20036;-91
2021/05/10 05:33:30;;;;;;;1.33;1.10;;;21.00;57.50;;;;;;4739361;30;20048;-90
2021/05/10 05:35:57;;;;;;;1.13;0.90;;;20.90;57.40;;;;;;4739441;30;20033;-88
2021/05/10 05:38:34;;;;;;;1.70;1.00;;;20.90;57.50;;;;;;4752233;30;20050;-86
2021/05/10 05:41:00;;;;;;;0.85;0.82;;;20.90;57.50;;;;;;4740582;30;20047;-87
2021/05/10 05:43:25;;;;;;;1.70;1.10;;;20.90;57.50;;;;;;4738624;30;20029;-87
2021/05/10 05:45:51;;;;;;;1.00;0.80;;;20.90;57.50;;;;;;4724472;30;20056;-85
2021/05/10 05:48:17;;;;;;;1.00;0.90;;;20.90;57.60;;;;;;4737184;30;20037;-91
2021/05/10 05:50:43;;;;;;;2.55;1.10;;;20.90;57.60;;;;;;4739193;30;20047;-88
2021/05/10 05:53:09;;;;;;;1.10;1.00;;;20.90;57.60;;;;;;4754118;30;20028;-92
2021/05/10 05:55:35;;;;;;;1.17;0.90;;;20.90;57.70;;;;;;4753631;30;20052;-89
2021/05/10 05:58:02;;;;;;;1.65;1.20;;;21.00;57.70;;;;;;4755468;30;20125;-89
2021/05/10 06:00:28;;;;;;;1.08;0.80;;;20.90;57.70;;;;;;4753314;30;20102;-91
2021/05/10 06:02:54;;;;;;;1.15;0.85;;;20.90;57.80;;;;;;4738222;30;20064;-83
2021/05/10 06:05:19;;;;;;;0.80;0.75;;;20.90;57.80;;;;;;4738495;30;20121;-88
2021/05/10 06:07:48;;;;;;;1.23;0.88;;;20.90;57.80;;;;;;4765996;30;20043;-88
2021/05/10 06:10:19;;;;;;;0.82;0.70;;;21.00;57.90;;;;;;4738721;30;20044;-88
2021/05/10 06:12:46;;;;;;;1.17;0.90;;;20.90;57.80;;;;;;4753035;30;20039;-87
2021/05/10 06:15:12;;;;;;;0.93;0.93;;;20.90;58.50;;;;;;4738677;30;20085;-86
2021/05/10 06:17:39;;;;;;;1.52;0.88;;;21.00;57.90;;;;;;4753195;30;20050;-89
2021/05/10 06:20:06;;;;;;;1.65;0.85;;;20.90;57.90;;;;;;4738058;30;20179;-88
2021/05/10 06:22:32;;;;;;;0.93;0.70;;;21.00;58.00;;;;;;4752982;30;20048;-89
2021/05/10 06:24:58;;;;;;;1.00;0.90;;;21.00;58.00;;;;;;4753007;30;20043;-87
2021/05/10 06:27:24;;;;;;;1.40;1.00;;;21.00;58.00;;;;;;4752951;30;20551;-87
2021/05/10 06:29:50;;;;;;;1.10;0.93;;;21.00;58.10;;;;;;4749965;30;20489;-87
2021/05/10 06:32:15;;;;;;;0.80;0.80;;;21.00;58.10;;;;;;4739000;30;20024;-87
2021/05/10 06:34:41;;;;;;;1.27;0.90;;;21.00;58.20;;;;;;4723267;30;20078;-86
2021/05/10 06:37:07;;;;;;;1.35;1.02;;;21.00;58.20;;;;;;4755262;30;20063;-86
2021/05/10 06:39:33;;;;;;;0.90;0.90;;;21.00;58.20;;;;;;4770253;30;20051;-87
2021/05/10 06:41:58;;;;;;;0.80;0.80;;;21.00;58.30;;;;;;4771602;30;20431;-86
2021/05/10 06:44:24;;;;;;;0.77;0.77;;;21.10;58.30;;;;;;4755881;30;20036;-87
2021/05/10 06:46:50;;;;;;;1.73;1.00;;;21.10;58.30;;;;;;4759039;30;20021;-85
2021/05/10 06:49:16;;;;;;;1.02;0.95;;;21.10;58.30;;;;;;4750387;30;20089;-88
2021/05/10 06:51:41;;;;;;;1.10;0.80;;;21.10;58.30;;;;;;4737653;30;20497;-87
2021/05/10 06:54:07;;;;;;;0.70;0.68;;;21.10;58.30;;;;;;4752587;30;20043;-87
2021/05/10 06:56:33;;;;;;;0.70;0.70;;;21.10;58.30;;;;;;4737644;30;20047;-87
2021/05/10 06:58:59;;;;;;;1.35;0.70;;;21.10;58.30;;;;;;4737550;30;20486;-87
2021/05/10 07:01:24;;;;;;;0.88;0.88;;;21.10;58.30;;;;;;4743846;30;20049;-87
2021/05/10 07:03:51;;;;;;;0.60;0.60;;;21.10;58.20;;;;;;4729547;30;20603;-87
2021/05/10 07:06:16;;;;;;;1.10;0.70;;;21.10;58.20;;;;;;4752513;30;20036;-88
2021/05/10 07:08:42;;;;;;;0.70;0.70;;;21.20;58.30;;;;;;4752211;30;20044;-87
2021/05/10 07:11:08;;;;;;;0.70;0.70;;;21.20;58.20;;;;;;4737512;30;20491;-86
2021/05/10 07:13:34;;;;;;;0.60;0.60;;;21.20;58.20;;;;;;4737272;30;20076;-88
2021/05/10 07:15:59;;;;;;;0.73;0.73;;;21.20;58.20;;;;;;4735279;30;20048;-87
2021/05/10 07:18:25;;;;;;;0.70;0.70;;;21.20;58.20;;;;;;4737381;30;20074;-88
2021/05/10 07:20:51;;;;;;;0.80;0.60;;;21.20;58.20;;;;;;4723033;30;20044;-87
2021/05/10 07:23:17;;;;;;;0.82;0.70;;;21.20;58.20;;;;;;4752255;30;20093;-86
2021/05/10 07:25:48;;;;;;;0.80;0.68;;;21.20;58.20;;;;;;4737469;30;20071;-86
2021/05/10 07:28:16;;;;;;;1.83;1.00;;;21.30;58.20;;;;;;4751859;30;20036;-86
2021/05/10 07:30:42;;;;;;;0.75;0.70;;;21.30;58.20;;;;;;4760225;30;20070;-86
2021/05/10 07:33:08;;;;;;;1.10;0.70;;;21.30;58.10;;;;;;4743976;30;20427;-87
2021/05/10 07:35:35;;;;;;;0.77;0.60;;;21.30;58.10;;;;;;4768048;30;20036;-88
2021/05/10 07:38:02;;;;;;;0.90;0.70;;;21.30;58.10;;;;;;4754783;30;20386;-87
2021/05/10 07:40:29;;;;;;;0.88;0.63;;;21.40;58.20;;;;;;4739470;30;20040;-87
2021/05/10 07:42:55;;;;;;;0.70;0.70;;;21.40;58.20;;;;;;4751946;30;20032;-86
2021/05/10 07:45:21;;;;;;;0.55;0.55;;;21.40;58.10;;;;;;4737321;30;20115;-87
2021/05/10 07:47:54;;;;;;;1.05;0.80;;;21.40;58.10;;;;;;4751570;30;20043;-89
2021/05/10 07:50:22;;;;;;;0.88;0.70;;;21.40;58.10;;;;;;4738205;30;20040;-88
2021/05/10 07:52:48;;;;;;;0.47;0.47;;;21.50;58.10;;;;;;4751569;30;20072;-88
2021/05/10 07:55:14;;;;;;;0.55;0.55;;;21.50;58.00;;;;;;4736892;30;20194;-87
2021/05/10 07:57:40;;;;;;;0.73;0.50;;;21.50;58.00;;;;;;4751210;30;20028;-88
2021/05/10 08:00:12;;;;;;;0.60;0.52;;;21.50;58.00;;;;;;4751725;30;20135;-87
2021/05/10 08:02:53;;;;;;;0.60;0.60;;;21.50;58.00;;;;;;4751585;30;20124;-86
2021/05/10 08:05:19;;;;;;;1.20;0.82;;;21.60;58.00;;;;;;4737727;30;20033;-88
2021/05/10 08:07:45;;;;;;;1.02;0.82;;;21.60;58.00;;;;;;4751638;30;20024;-90
2021/05/10 08:10:11;;;;;;;0.70;0.70;;;21.60;57.90;;;;;;4737600;30;20445;-89
2021/05/10 08:12:37;;;;;;;0.95;0.65;;;21.60;57.90;;;;;;4736901;30;20513;-87
2021/05/10 08:15:03;;;;;;;0.73;0.68;;;21.60;57.90;;;;;;4742822;30;20056;-89
2021/05/10 08:17:30;;;;;;;0.60;0.60;;;21.70;57.90;;;;;;4742648;30;20104;-90
2021/05/10 08:19:56;;;;;;;0.80;0.70;;;21.70;58.00;;;;;;4751650;30;20068;-88
2021/05/10 08:22:22;;;;;;;1.00;0.80;;;21.70;57.90;;;;;;4737171;30;20036;-94
2021/05/10 08:24:47;;;;;;;1.33;0.75;;;21.70;57.90;;;;;;4736984;30;20398;-88
2021/05/10 08:27:13;;;;;;;0.70;0.70;;;21.70;57.90;;;;;;4736462;30;20486;-88
2021/05/10 08:29:39;;;;;;;0.95;0.85;;;21.70;57.90;;;;;;4737040;30;20082;-86
2021/05/10 08:32:05;;;;;;;0.55;0.55;;;21.70;57.90;;;;;;4754210;30;20032;-89
2021/05/10 08:34:31;;;;;;;1.02;0.80;;;21.70;57.90;;;;;;4736998;30;20032;-89
2021/05/10 08:36:59;;;;;;;0.73;0.73;;;21.70;57.80;;;;;;4736851;30;20127;-92
2021/05/10 08:39:25;;;;;;;1.10;0.63;;;21.80;57.90;;;;;;4744063;30;20043;-89
2021/05/10 08:42:09;;;;;;;0.88;0.68;;;21.80;57.90;;;;;;4757291;30;20048;-91
2021/05/10 08:44:36;;;;;;;0.65;0.65;;;21.80;58.00;;;;;;4755800;30;20127;-91
2021/05/10 08:47:05;;;;;;;0.65;0.60;;;21.80;57.90;;;;;;4736800;30;20032;-91
2021/05/10 08:49:30;;;;;;;0.70;0.70;;;21.80;57.90;;;;;;4736925;30;20040;-89
2021/05/10 08:51:56;;;;;;;0.80;0.80;;;21.80;57.90;;;;;;4751518;30;20052;-90
2021/05/10 08:54:26;;;;;;;0.80;0.80;;;21.80;57.90;;;;;;4740579;30;20040;-88
2021/05/10 08:56:53;;;;;;;1.02;0.60;;;21.80;57.90;;;;;;4751221;30;20039;-88
2021/05/10 08:59:20;;;;;;;0.70;0.70;;;21.80;57.90;;;;;;4765381;30;20071;-88
2021/05/10 09:01:48;;;;;;;0.63;0.63;;;21.80;57.90;;;;;;4739827;30;20043;-88
2021/05/10 09:04:14;;;;;;;1.85;0.80;;;21.80;58.00;;;;;;4753929;30;20040;-89
2021/05/10 09:06:43;;;;;;;0.70;0.70;;;21.80;57.90;;;;;;4754750;30;20028;-88
2021/05/10 09:09:14;;;;;;;0.65;0.50;;;21.80;57.90;;;;;;4766913;30;20047;-89
2021/05/10 09:12:06;;;;;;;0.70;0.70;;;21.80;58.00;;;;;;4755270;30;20036;-89
2021/05/10 09:14:36;;;;;;;0.80;0.80;;;21.80;58.10;;;;;;4741788;30;20068;-89
2021/05/10 09:17:02;;;;;;;0.80;0.73;;;21.90;58.00;;;;;;4746224;30;20045;-89
2021/05/10 09:19:49;;;;;;;0.70;0.70;;;21.90;58.00;;;;;;4739701;30;20470;-88
2021/05/10 09:22:16;;;;;;;0.80;0.68;;;21.90;58.10;;;;;;4756301;30;20032;-91
2021/05/10 09:25:05;;;;;;;1.02;0.70;;;21.90;57.90;;;;;;4753637;30;20040;-87
2021/05/10 09:27:42;;;;;;;0.82;0.82;;;21.80;57.90;;;;;;4739315;30;20020;-86
2021/05/10 09:30:23;;;;;;;0.70;0.70;;;21.90;58.00;;;;;;4740363;30;20129;-88
2021/05/10 09:32:56;;;;;;;0.70;0.70;;;21.90;58.00;;;;;;4762522;30;20094;-88
2021/05/10 09:35:32;;;;;;;0.75;0.75;;;21.90;58.00;;;;;;4756374;30;20095;-91
2021/05/10 09:38:05;;;;;;;0.60;0.60;;;21.90;58.00;;;;;;4753735;30;20052;-87
2021/05/10 09:40:50;;;;;;;0.68;0.68;;;21.90;57.80;;;;;;4753754;30;20040;-88
2021/05/10 09:43:22;;;;;;;1.65;0.77;;;21.90;57.90;;;;;;4742420;30;20096;-91
2021/05/10 09:45:52;;;;;;;1.42;0.63;;;22.00;57.90;;;;;;4753590;30;20070;-92
2021/05/10 09:48:25;;;;;;;0.93;0.88;;;22.00;57.80;;;;;;4736997;30;20032;-93
2021/05/10 09:51:02;;;;;;;1.23;0.88;;;21.90;57.80;;;;;;4739329;30;20039;-92
2021/05/10 09:53:45;;;;;;;1.30;0.90;;;22.00;57.80;;;;;;4766045;30;20044;-92
2021/05/10 09:56:37;;;;;;;0.70;0.70;;;22.00;57.80;;;;;;4754104;30;20036;-92
2021/05/10 09:59:12;;;;;;;0.73;0.73;;;22.00;57.70;;;;;;4730070;30;20036;-92
2021/05/10 10:01:47;;;;;;;2.15;0.80;;;22.00;57.70;;;;;;4766877;30;20487;-91
2021/05/10 10:04:22;;;;;;;0.60;0.60;;;22.00;57.70;;;;;;4739088;30;20039;-88
2021/05/10 10:07:02;;;;;;;0.98;0.80;;;22.10;57.70;;;;;;4757398;30;20054;-93
2021/05/10 10:09:37;;;;;;;0.70;0.70;;;22.00;57.70;;;;;;4746503;30;20120;-91
2021/05/10 10:12:03;;;;;;;1.02;0.65;;;22.10;57.60;;;;;;4737373;30;20167;-84
2021/05/10 10:14:29;;;;;;;1.10;0.80;;;22.10;57.60;;;;;;4723251;30;20077;-85
2021/05/10 10:16:55;;;;;;;1.00;0.90;;;22.10;57.60;;;;;;4737777;30;20040;-85
2021/05/10 10:19:20;;;;;;;0.75;0.70;;;22.10;58.30;;;;;;4752963;30;20051;-85
2021/05/10 10:21:46;;;;;;;1.60;0.70;;;22.10;57.60;;;;;;4737591;30;20037;-85
2021/05/10 10:24:13;;;;;;;1.70;0.77;;;22.10;57.60;;;;;;4738213;30;20472;-85
2021/05/10 10:26:40;;;;;;;0.77;0.70;;;22.20;57.60;;;;;;4752083;30;20036;-85
2021/05/10 10:29:08;;;;;;;0.63;0.63;;;22.20;57.60;;;;;;4760517;30;20529;-85
2021/05/10 10:31:40;;;;;;;0.70;0.70;;;22.20;57.60;;;;;;4741757;30;20052;-84
2021/05/10 10:34:35;;;;;;;0.90;0.68;;;22.20;57.60;;;;;;4750580;30;20416;-84
2021/05/10 10:37:02;;;;;;;0.93;0.70;;;22.20;57.50;;;;;;4752121;30;20093;-85
2021/05/10 10:39:32;;;;;;;4.05;0.75;;;22.20;57.40;;;;;;4753462;30;20431;-85
2021/05/10 10:42:02;;;;;;;1.40;0.80;;;22.30;57.50;;;;;;4751824;30;20037;-86
2021/05/10 10:44:39;;;;;;;0.60;0.60;;;22.30;57.50;;;;;;4761441;30;20061;-86
2021/05/10 10:47:06;;;;;;;0.70;0.70;;;22.30;57.50;;;;;;4739694;30;20242;-86
2021/05/10 10:49:34;;;;;;;1.20;0.80;;;22.30;57.40;;;;;;4752083;30;20077;-84
2021/05/10 10:52:01;;;;;;;1.05;0.90;;;22.30;58.00;;;;;;4751065;30;20036;-85
2021/05/10 10:54:30;;;;;;;0.98;0.98;;;22.30;58.00;;;;;;4752596;30;20038;-85
2021/05/10 10:56:59;;;;;;;1.00;0.90;;;22.40;57.40;;;;;;4748284;30;20500;-85
2021/05/10 10:59:37;;;;;;;1.02;1.00;;;22.30;57.30;;;;;;4756335;30;20040;-86
2021/05/10 11:02:18;;;;;;;1.20;0.88;;;22.40;57.40;;;;;;4752094;30;20036;-86
2021/05/10 11:04:46;;;;;;;0.95;0.82;;;22.40;57.40;;;;;;4752002;30;20047;-85
2021/05/10 11:07:12;;;;;;;1.10;1.00;;;22.40;57.30;;;;;;4737819;30;20032;-85
2021/05/10 11:09:51;;;;;;;1.33;1.13;;;22.40;57.40;;;;;;4748947;30;20047;-85
2021/05/10 11:12:46;;;;;;;1.55;1.10;;;22.40;57.50;;;;;;4764933;30;20032;-85
2021/05/10 11:15:33;;;;;;;1.10;1.00;;;22.40;57.50;;;;;;4745023;30;20087;-84
2021/05/10 11:17:59;;;;;;;1.20;1.10;;;22.40;57.40;;;;;;4738850;30;20060;-85
2021/05/10 11:20:45;;;;;;;1.40;1.30;;;22.40;57.40;;;;;;4751723;30;20036;-84
2021/05/10 11:23:23;;;;;;;2.08;1.27;;;22.40;57.70;;;;;;4762278;30;20036;-83
2021/05/10 11:25:51;;;;;;;1.40;1.17;;;22.40;57.70;;;;;;4752452;30;20631;-84
2021/05/10 11:28:28;;;;;;;1.52;1.23;;;22.40;57.70;;;;;;4736619;30;20063;-84
2021/05/10 11:31:05;;;;;;;1.67;1.30;;;22.40;57.80;;;;;;4751433;30;20029;-85
2021/05/10 11:33:56;;;;;;;1.70;1.15;;;22.30;57.80;;;;;;4752086;30;20425;-86
2021/05/10 11:36:36;;;;;;;1.70;1.30;;;22.30;58.00;;;;;;4751431;30;20067;-84
2021/05/10 11:39:10;;;;;;;1.33;1.23;;;22.30;58.00;;;;;;4750969;30;20105;-84
2021/05/10 11:41:39;;;;;;;1.52;1.42;;;22.30;58.00;;;;;;4722518;30;20482;-85
2021/05/10 11:44:06;;;;;;;1.45;1.35;;;22.30;58.00;;;;;;4751565;30;20059;-86
2021/05/10 11:46:40;;;;;;;1.75;1.30;;;22.30;58.10;;;;;;4737277;30;20498;-85
2021/05/10 11:49:08;;;;;;;2.03;1.50;;;22.30;58.10;;;;;;4751633;30;20036;-85
2021/05/10 11:51:39;;;;;;;1.50;1.40;;;22.20;58.10;;;;;;4752149;30;20035;-85
2021/05/10 11:54:10;;;;;;;1.40;1.30;;;22.20;58.20;;;;;;4737361;30;20040;-85
2021/05/10 11:56:42;;;;;;;1.58;1.38;;;22.20;58.20;;;;;;4759720;30;20048;-85
2021/05/10 12:02:10;;;;;;;1.90;1.20;;;22.20;58.30;;;;;;4752181;30;20048;-85
2021/05/10 12:04:53;;;;;;;1.92;1.50;;;22.10;58.20;;;;;;4752632;30;20043;-85
2021/05/10 12:07:21;;;;;;;1.42;1.30;;;22.10;58.30;;;;;;4751836;30;20036;-86
2021/05/10 12:09:59;;;;;;;1.33;1.20;;;22.10;58.10;;;;;;4751446;30;20059;-85
2021/05/10 12:12:33;;;;;;;1.45;1.20;;;22.10;58.10;;;;;;4750858;30;20083;-85
2021/05/10 12:15:13;;;;;;;1.73;1.25;;;22.10;58.10;;;;;;4735838;30;20511;-84
2021/05/10 12:17:43;;;;;;;1.40;1.30;;;22.10;58.20;;;;;;4750500;30;20120;-85
2021/05/10 12:20:14;;;;;;;1.48;1.20;;;22.00;58.10;;;;;;4749940;30;20036;-86
2021/05/10 12:22:48;;;;;;;1.10;0.93;;;22.00;58.10;;;;;;4750214;30;20044;-85
2021/05/10 12:25:21;;;;;;;1.35;1.13;;;22.00;58.20;;;;;;4763396;30;20042;-84
2021/05/10 12:28:10;;;;;;;1.52;1.10;;;22.00;58.20;;;;;;4750395;30;20060;-84
2021/05/10 12:30:44;;;;;;;1.15;1.02;;;22.00;58.30;;;;;;4736188;30;20115;-84
2021/05/10 12:33:12;;;;;;;1.20;1.10;;;22.00;58.30;;;;;;4749544;30;20387;-85
2021/05/10 12:35:59;;;;;;;1.77;1.20;;;22.00;58.30;;;;;;4753874;30;20036;-83
2021/05/10 12:38:27;;;;;;;1.75;1.20;;;22.10;58.40;;;;;;4753976;30;20040;-83
2021/05/10 12:40:54;;;;;;;1.33;1.17;;;22.10;58.30;;;;;;4754860;30;20039;-84
2021/05/10 12:43:22;;;;;;;1.02;0.93;;;22.10;58.30;;;;;;4755369;30;20036;-84
2021/05/10 12:45:57;;;;;;;1.35;1.10;;;22.10;58.30;;;;;;4753787;30;20066;-84
2021/05/10 12:48:36;;;;;;;0.90;0.90;;;22.10;58.30;;;;;;4754479;30;20028;-84
2021/05/10 12:51:14;;;;;;;1.08;1.00;;;22.20;58.20;;;;;;4767506;30;20028;-82
2021/05/10 12:53:47;;;;;;;1.20;1.10;;;22.20;58.20;;;;;;4739365;30;20545;-83
2021/05/10 12:56:17;;;;;;;2.47;1.40;;;22.20;58.10;;;;;;4753355;30;20032;-84
2021/05/10 12:59:01;;;;;;;1.38;1.20;;;22.30;58.10;;;;;;4753580;30;20044;-84
2021/05/10 13:01:31;;;;;;;1.00;1.00;;;22.30;58.10;;;;;;4738877;30;20074;-91
2021/05/10 13:04:06;;;;;;;1.23;1.10;;;22.40;57.90;;;;;;4725188;30;20103;-87
2021/05/10 13:06:35;;;;;;;1.00;0.90;;;22.40;57.90;;;;;;4758377;30;20036;-88